createdAt,value
2022-10-09T00:02:26.423Z,6.55
2022-10-09T00:05:28.097Z,6.37
2022-10-09T00:08:29.771Z,6.26
2022-10-09T00:11:33.085Z,6.19
2022-10-09T00:14:34.524Z,6.09
2022-10-09T00:17:36.053Z,6.02
2022-10-09T00:20:38.968Z,5.97
2022-10-09T00:23:40.375Z,5.97
2022-10-09T00:26:41.794Z,5.96
2022-10-09T00:29:43.225Z,5.96
2022-10-09T00:32:44.625Z,6.19
2022-10-09T00:35:46.772Z,6.44
2022-10-09T00:38:48.845Z,6.58
2022-10-09T00:41:50.300Z,6.58
2022-10-09T00:44:58.019Z,6.47
2022-10-09T00:48:03.057Z,6.30
2022-10-09T00:51:05.015Z,6.30
2022-10-09T00:54:10.907Z,6.37
2022-10-09T00:57:12.437Z,6.27
2022-10-09T01:00:14.902Z,6.27
2022-10-09T01:03:16.454Z,6.28
2022-10-09T01:06:28.960Z,6.26
2022-10-09T01:09:39.521Z,6.22
2022-10-09T01:12:58.270Z,6.17
2022-10-09T01:16:09.762Z,6.06
2022-10-09T01:19:11.178Z,5.95
2022-10-09T01:22:42.682Z,5.95
2022-10-09T01:26:08.911Z,5.97
2022-10-09T01:29:12.373Z,5.92
2022-10-09T01:32:20.295Z,5.84
2022-10-09T01:35:22.751Z,5.80
2022-10-09T01:38:24.391Z,5.76
2022-10-09T01:41:26.379Z,5.76
2022-10-09T01:44:30.745Z,5.88
2022-10-09T01:47:32.228Z,5.94
2022-10-09T01:50:39.751Z,5.93
2022-10-09T01:53:44.070Z,5.82
2022-10-09T01:56:48.371Z,5.76
2022-10-09T01:59:52.326Z,5.79
2022-10-09T02:02:56.145Z,5.77
2022-10-09T02:05:58.326Z,5.82
2022-10-09T02:09:01.468Z,5.81
2022-10-09T02:12:07.797Z,5.73
2022-10-09T02:15:09.901Z,5.63
2022-10-09T02:18:14.682Z,5.58
2022-10-09T02:21:22.961Z,5.49
2022-10-09T02:24:24.921Z,5.37
2022-10-09T02:27:27.503Z,5.35
2022-10-09T02:30:37.393Z,5.26
2022-10-09T02:33:38.978Z,5.20
2022-10-09T02:36:40.571Z,5.16
2022-10-09T02:39:41.972Z,5.04
2022-10-09T02:42:43.387Z,4.99
2022-10-09T02:45:44.795Z,4.96
2022-10-09T02:48:46.383Z,4.87
2022-10-09T02:51:47.841Z,4.83
2022-10-09T02:54:49.246Z,5.01
2022-10-09T02:57:50.642Z,5.28
2022-10-09T03:00:53.384Z,5.21
2022-10-09T03:03:54.793Z,5.10
2022-10-09T03:06:56.192Z,5.16
2022-10-09T03:09:58.620Z,5.22
2022-10-09T03:13:00.058Z,5.21
2022-10-09T03:16:06.611Z,5.12
2022-10-09T03:19:08.074Z,5.01
2022-10-09T03:22:09.469Z,5.03
2022-10-09T03:25:10.900Z,5.00
2022-10-09T03:28:12.360Z,5.02
2022-10-09T03:31:39.367Z,5.07
2022-10-09T03:34:37.269Z,5.08
2022-10-09T03:37:38.667Z,5.19
2022-10-09T03:40:40.227Z,5.35
2022-10-09T03:43:41.619Z,5.57
2022-10-09T03:46:43.114Z,5.49
2022-10-09T03:49:44.530Z,5.51
2022-10-09T03:52:46.286Z,5.56
2022-10-09T03:55:48.094Z,5.48
2022-10-09T03:58:49.529Z,5.37
2022-10-09T04:01:51.214Z,5.29
2022-10-09T04:04:52.614Z,5.28
2022-10-09T04:07:54.009Z,5.31
2022-10-09T04:10:59.414Z,5.20
2022-10-09T04:14:01.143Z,5.18
2022-10-09T04:17:02.542Z,5.05
2022-10-09T04:20:04.533Z,4.96
2022-10-09T04:23:05.923Z,5.01
2022-10-09T04:26:07.332Z,4.98
2022-10-09T04:29:08.720Z,4.94
2022-10-09T04:32:10.165Z,4.94
2022-10-09T04:35:11.607Z,4.90
2022-10-09T04:38:13.025Z,4.85
2022-10-09T04:41:14.474Z,4.91
2022-10-09T04:44:15.957Z,4.92
2022-10-09T04:47:17.375Z,4.96
2022-10-09T04:50:18.792Z,4.91
2022-10-09T04:53:33.150Z,4.87
2022-10-09T04:56:34.664Z,4.95
2022-10-09T04:59:36.068Z,4.98
2022-10-09T05:02:37.520Z,4.99
2022-10-09T05:05:39.381Z,4.83
2022-10-09T05:08:41.475Z,4.80
2022-10-09T05:11:43.115Z,4.80
2022-10-09T05:14:44.565Z,4.70
2022-10-09T05:17:46.141Z,4.69
2022-10-09T05:20:47.605Z,4.67
2022-10-09T05:23:49.352Z,4.59
2022-10-09T05:26:50.784Z,4.53
2022-10-09T05:29:52.236Z,4.53
2022-10-09T05:32:53.662Z,4.46
2022-10-09T05:36:00.296Z,4.49
2022-10-09T05:39:01.753Z,4.47
2022-10-09T05:42:03.349Z,4.41
2022-10-09T05:45:05.039Z,4.36
2022-10-09T05:48:06.420Z,4.30
2022-10-09T05:51:16.843Z,4.34
2022-10-09T05:54:18.289Z,4.41
2022-10-09T05:57:19.685Z,4.37
2022-10-09T06:00:21.165Z,4.33
2022-10-09T06:03:22.575Z,4.43
2022-10-09T06:06:26.933Z,4.38
2022-10-09T06:09:28.379Z,4.36
2022-10-09T06:12:29.994Z,4.40
2022-10-09T06:15:31.417Z,4.40
2022-10-09T06:18:32.862Z,4.38
2022-10-09T06:21:34.938Z,4.38
2022-10-09T06:24:36.412Z,4.36
2022-10-09T06:27:37.805Z,4.52
2022-10-09T06:30:39.401Z,4.58
2022-10-09T06:33:43.090Z,4.56
2022-10-09T06:36:44.589Z,4.56
2022-10-09T06:39:46.007Z,4.69
2022-10-09T06:42:47.672Z,4.86
2022-10-09T06:45:52.053Z,4.96
2022-10-09T06:48:53.499Z,5.00
2022-10-09T06:51:54.929Z,5.01
2022-10-09T06:54:56.348Z,5.02
2022-10-09T06:57:58.374Z,5.10
2022-10-09T07:01:05.321Z,5.15
2022-10-09T07:04:10.704Z,5.21
2022-10-09T07:07:12.126Z,5.60
2022-10-09T07:10:13.739Z,6.36
2022-10-09T07:13:15.164Z,6.97
2022-10-09T07:16:22.056Z,7.84
2022-10-09T07:19:23.473Z,8.54
2022-10-09T07:22:27.135Z,9.35
2022-10-09T07:25:28.704Z,10.08
2022-10-09T07:28:30.326Z,10.91
2022-10-09T07:31:31.769Z,11.25
2022-10-09T07:34:33.193Z,11.42
2022-10-09T07:37:34.605Z,12.17
2022-10-09T07:40:36.050Z,12.22
2022-10-09T07:43:42.604Z,12.21
2022-10-09T07:46:44.110Z,11.94
2022-10-09T07:49:45.564Z,12.18
2022-10-09T07:52:47.229Z,11.35
2022-10-09T07:55:49.530Z,11.64
2022-10-09T07:58:53.070Z,11.50
2022-10-09T08:01:54.602Z,11.92
2022-10-09T08:04:56.076Z,12.61
2022-10-09T08:07:57.679Z,12.24
2022-10-09T08:10:59.489Z,12.02
2022-10-09T08:14:01.187Z,10.91
2022-10-09T08:17:02.590Z,10.37
2022-10-09T08:20:04.453Z,10.21
2022-10-09T08:23:06.022Z,9.97
2022-10-09T08:26:19.309Z,9.56
2022-10-09T08:29:20.723Z,9.64
2022-10-09T08:32:22.149Z,9.57
2022-10-09T08:35:23.618Z,9.68
2022-10-09T08:38:46.113Z,9.77
2022-10-09T08:41:49.889Z,9.82
2022-10-09T08:44:51.372Z,9.93
2022-10-09T08:48:02.376Z,10.05
2022-10-09T08:51:06.780Z,10.01
2022-10-09T08:54:21.616Z,10.08
2022-10-09T08:57:23.092Z,10.09
2022-10-09T09:00:32.333Z,10.18
2022-10-09T09:03:45.693Z,10.24
2022-10-09T09:07:02.181Z,10.39
2022-10-09T09:10:33.882Z,10.54
2022-10-09T09:14:02.756Z,10.71
2022-10-09T09:17:48.349Z,10.84
2022-10-09T09:20:53.746Z,10.96
2022-10-09T09:23:56.213Z,11.09
2022-10-09T09:27:03.467Z,11.15
2022-10-09T09:30:14.661Z,11.18
2022-10-09T09:33:36.729Z,11.22
2022-10-09T09:36:41.245Z,11.45
2022-10-09T09:43:16.706Z,12.18
2022-10-09T09:46:21.616Z,12.94
2022-10-09T09:49:25.794Z,13.48
2022-10-09T09:52:29.444Z,13.20
2022-10-09T09:55:33.308Z,13.60
2022-10-09T09:58:39.912Z,13.63
2022-10-09T10:01:42.427Z,13.95
2022-10-09T10:04:58.089Z,13.88
2022-10-09T10:07:59.485Z,13.87
2022-10-09T10:11:05.332Z,14.04
2022-10-09T10:14:08.656Z,14.14
2022-10-09T10:17:29.112Z,14.26
2022-10-09T10:20:32.639Z,14.00
2022-10-09T10:23:39.394Z,14.27
2022-10-09T10:26:51.805Z,14.27
2022-10-09T10:29:59.136Z,14.56
2022-10-09T10:33:03.545Z,14.53
2022-10-09T10:36:05.956Z,14.38
2022-10-09T10:39:41.697Z,14.26
2022-10-09T10:43:02.079Z,14.21
2022-10-09T10:46:22.549Z,14.11
2022-10-09T10:49:24.421Z,14.29
2022-10-09T10:52:33.211Z,14.46
2022-10-09T10:56:05.371Z,14.49
2022-10-09T10:59:25.763Z,14.74
2022-10-09T11:02:42.449Z,15.04
2022-10-09T11:06:04.523Z,14.72
2022-10-09T11:09:27.397Z,14.34
2022-10-09T11:12:50.346Z,14.70
2022-10-09T11:16:20.100Z,14.87
2022-10-09T11:20:09.015Z,15.00
2022-10-09T11:23:52.213Z,15.41
2022-10-09T11:27:22.557Z,15.42
2022-10-09T11:30:24.012Z,15.26
2022-10-09T11:33:37.219Z,15.01
2022-10-09T11:36:42.561Z,15.40
2022-10-09T11:39:44.885Z,15.26
2022-10-09T11:42:59.777Z,15.13
2022-10-09T11:46:07.265Z,15.24
2022-10-09T11:49:23.574Z,15.17
2022-10-09T11:52:24.928Z,15.26
2022-10-09T11:55:29.710Z,15.29
2022-10-09T11:58:31.675Z,15.33
2022-10-09T12:01:41.176Z,15.43
2022-10-09T12:04:54.588Z,15.50
2022-10-09T12:08:07.672Z,15.30
2022-10-09T12:11:15.412Z,15.44
2022-10-09T12:14:24.798Z,15.70
2022-10-09T12:17:26.126Z,15.64
2022-10-09T12:20:28.224Z,15.49
2022-10-09T12:23:33.376Z,15.47
2022-10-09T12:26:35.630Z,15.65
2022-10-09T12:29:47.092Z,15.78
2022-10-09T12:32:59.061Z,15.79
2022-10-09T12:36:25.744Z,15.79
2022-10-09T12:39:27.138Z,15.89
2022-10-09T12:42:28.634Z,16.01
2022-10-09T12:45:31.257Z,16.24
2022-10-09T12:48:39.097Z,16.12
2022-10-09T12:51:40.518Z,15.98
2022-10-09T12:54:44.495Z,15.99
2022-10-09T12:57:46.050Z,15.83
2022-10-09T13:00:50.064Z,15.91
2022-10-09T13:03:59.283Z,16.11
2022-10-09T13:07:06.490Z,16.05
2022-10-09T13:10:18.436Z,15.89
2022-10-09T13:13:25.265Z,15.84
2022-10-09T13:16:26.759Z,16.04
2022-10-09T13:19:33.689Z,16.11
2022-10-09T13:22:35.943Z,15.92
2022-10-09T13:25:42.303Z,16.26
2022-10-09T13:28:43.810Z,16.49
2022-10-09T13:31:45.397Z,16.59
2022-10-09T13:34:46.790Z,16.46
2022-10-09T13:37:48.695Z,16.14
2022-10-09T13:40:50.453Z,16.49
2022-10-09T13:43:53.253Z,16.35
2022-10-09T13:46:54.688Z,16.34
2022-10-09T13:49:56.076Z,16.31
2022-10-09T13:52:57.485Z,16.48
2022-10-09T13:56:01.000Z,16.34
2022-10-09T13:59:02.906Z,16.41
2022-10-09T14:02:04.358Z,16.51
2022-10-09T14:05:06.134Z,16.64
2022-10-09T14:08:07.569Z,16.88
2022-10-09T14:11:09.103Z,16.73
2022-10-09T14:14:10.520Z,16.82
2022-10-09T14:17:11.952Z,16.33
2022-10-09T14:20:13.552Z,16.18
2022-10-09T14:23:15.065Z,16.26
2022-10-09T14:26:16.485Z,16.26
2022-10-09T14:29:18.148Z,16.31
2022-10-09T14:32:19.542Z,16.30
2022-10-09T14:35:21.801Z,16.23
2022-10-09T14:38:23.590Z,16.29
2022-10-09T14:41:25.069Z,16.49
2022-10-09T14:44:26.544Z,16.54
2022-10-09T14:47:28.009Z,16.36
2022-10-09T14:50:29.467Z,16.47
2022-10-09T14:53:31.412Z,16.31
2022-10-09T14:56:33.173Z,16.27
2022-10-09T14:59:34.612Z,16.38
2022-10-09T15:02:36.057Z,16.19
2022-10-09T15:05:37.479Z,16.27
2022-10-09T15:08:40.919Z,16.15
2022-10-09T15:11:42.398Z,16.19
2022-10-09T15:14:43.785Z,16.06
2022-10-09T15:17:45.218Z,16.07
2022-10-09T15:20:46.777Z,16.45
2022-10-09T15:23:49.644Z,16.74
2022-10-09T15:26:51.037Z,17.10
2022-10-09T15:29:52.449Z,17.05
2022-10-09T15:32:54.652Z,16.73
2022-10-09T15:35:56.077Z,16.42
2022-10-09T15:38:57.503Z,16.26
2022-10-09T15:41:59.001Z,16.27
2022-10-09T15:45:00.441Z,16.20
2022-10-09T15:48:01.849Z,16.10
2022-10-09T15:51:05.056Z,15.58
2022-10-09T15:54:06.779Z,15.40
2022-10-09T15:57:08.208Z,15.19
2022-10-09T16:00:11.107Z,14.84
2022-10-09T16:03:13.979Z,14.72
2022-10-09T16:06:18.747Z,14.65
2022-10-09T16:09:20.876Z,14.42
2022-10-09T16:12:22.440Z,14.23
2022-10-09T16:15:23.856Z,14.03
2022-10-09T16:18:25.350Z,13.89
2022-10-09T16:21:28.585Z,13.75
2022-10-09T16:24:30.000Z,13.55
2022-10-09T16:27:31.470Z,13.39
2022-10-09T16:30:37.413Z,13.14
2022-10-09T16:33:39.848Z,12.89
2022-10-09T16:36:41.357Z,12.68
2022-10-09T16:39:43.799Z,12.47
2022-10-09T16:42:46.028Z,12.25
2022-10-09T16:45:47.451Z,12.09
2022-10-09T16:48:50.069Z,11.87
2022-10-09T16:51:51.483Z,11.73
2022-10-09T16:54:55.859Z,11.62
2022-10-09T16:57:59.328Z,11.52
2022-10-09T17:01:03.954Z,11.39
2022-10-09T17:04:09.883Z,11.20
2022-10-09T17:07:11.848Z,11.05
2022-10-09T17:10:13.232Z,10.90
2022-10-09T17:13:15.007Z,10.79
2022-10-09T17:16:19.373Z,10.73
2022-10-09T17:19:20.866Z,10.65
2022-10-09T17:22:22.287Z,10.54
2022-10-09T17:25:24.042Z,10.40
2022-10-09T17:28:30.795Z,10.28
2022-10-09T17:31:34.117Z,10.18
2022-10-09T17:34:35.575Z,10.17
2022-10-09T17:37:42.673Z,10.13
2022-10-09T17:40:44.074Z,10.12
2022-10-09T17:43:45.559Z,9.97
2022-10-09T17:46:46.953Z,9.89
2022-10-09T17:49:48.431Z,9.80
2022-10-09T17:52:50.069Z,9.74
2022-10-09T17:55:54.306Z,9.76
2022-10-09T17:58:55.835Z,9.71
2022-10-09T18:02:00.637Z,9.60
2022-10-09T18:05:02.064Z,9.53
2022-10-09T18:08:04.604Z,9.41
2022-10-09T18:11:08.920Z,9.30
2022-10-09T18:14:10.543Z,9.17
2022-10-09T18:17:11.965Z,9.09
2022-10-09T18:20:13.371Z,9.00
2022-10-09T18:23:17.416Z,8.89
2022-10-09T18:26:21.144Z,8.85
2022-10-09T18:29:41.264Z,8.81
2022-10-09T18:33:01.059Z,8.73
2022-10-09T18:36:24.136Z,8.60
2022-10-09T18:39:26.616Z,8.52
2022-10-09T18:42:28.060Z,8.37
2022-10-09T18:45:29.726Z,8.29
2022-10-09T18:48:34.958Z,8.24
2022-10-09T18:51:39.736Z,8.14
2022-10-09T18:54:43.157Z,8.06
2022-10-09T18:57:45.742Z,8.02
2022-10-09T19:00:47.607Z,8.05
2022-10-09T19:03:50.240Z,7.96
2022-10-09T19:06:54.253Z,7.92
2022-10-09T19:09:57.461Z,7.94
2022-10-09T19:12:59.099Z,8.02
2022-10-09T19:16:00.529Z,7.96
2022-10-09T19:19:02.404Z,7.93
2022-10-09T19:22:04.808Z,7.90
2022-10-09T19:25:06.756Z,7.90
2022-10-09T19:28:08.212Z,7.88
2022-10-09T19:31:10.806Z,7.95
2022-10-09T19:34:12.241Z,7.95
2022-10-09T19:37:13.688Z,7.89
2022-10-09T19:40:15.272Z,7.88
2022-10-09T19:43:18.145Z,7.87
2022-10-09T19:46:19.756Z,7.87
2022-10-09T19:49:21.176Z,7.83
2022-10-09T19:52:22.564Z,7.79
2022-10-09T19:55:27.706Z,7.76
2022-10-09T19:58:32.168Z,7.76
2022-10-09T20:01:34.974Z,7.82
2022-10-09T20:04:36.410Z,7.75
2022-10-09T20:07:37.800Z,7.68
2022-10-09T20:10:39.229Z,7.55
2022-10-09T20:13:42.666Z,7.46
2022-10-09T20:16:44.099Z,7.41
2022-10-09T20:19:45.899Z,7.48
2022-10-09T20:22:47.709Z,7.46
2022-10-09T20:25:58.512Z,7.49
2022-10-09T20:29:00.137Z,7.40
2022-10-09T20:32:01.558Z,7.37
2022-10-09T20:35:04.641Z,7.26
2022-10-09T20:38:06.045Z,7.19
2022-10-09T20:41:08.326Z,7.21
2022-10-09T20:44:10.934Z,7.20
2022-10-09T20:47:12.333Z,7.24
2022-10-09T20:50:13.762Z,7.27
2022-10-09T20:53:15.190Z,7.23
2022-10-09T20:56:16.605Z,7.27
2022-10-09T20:59:18.566Z,7.24
2022-10-09T21:02:19.975Z,7.16
2022-10-09T21:05:21.524Z,7.16
2022-10-09T21:08:22.923Z,7.12
2022-10-09T21:11:24.993Z,7.11
2022-10-09T21:14:26.380Z,7.14
2022-10-09T21:17:27.965Z,7.12
2022-10-09T21:20:29.353Z,7.13
2022-10-09T21:23:30.923Z,7.05
2022-10-09T21:26:33.030Z,7.08
2022-10-09T21:29:34.644Z,7.04
2022-10-09T21:32:36.050Z,7.07
2022-10-09T21:35:43.124Z,7.13
2022-10-09T21:38:44.516Z,6.94
2022-10-09T21:41:46.285Z,6.86
2022-10-09T21:44:47.699Z,6.78
2022-10-09T21:47:49.125Z,6.79
2022-10-09T21:50:50.573Z,6.82
2022-10-09T21:53:53.436Z,6.77
2022-10-09T21:56:55.026Z,6.75
2022-10-09T21:59:56.468Z,6.69
2022-10-09T22:02:57.921Z,6.69
2022-10-09T22:06:02.761Z,6.68
2022-10-09T22:09:04.163Z,6.61
2022-10-09T22:12:05.573Z,6.53
2022-10-09T22:15:07.332Z,6.39
2022-10-09T22:18:09.313Z,6.28
2022-10-09T22:21:13.611Z,6.22
2022-10-09T22:24:14.948Z,6.17
2022-10-09T22:27:16.739Z,6.09
2022-10-09T22:30:18.256Z,6.02
2022-10-09T22:33:19.680Z,5.93
2022-10-09T22:36:23.621Z,5.87
2022-10-09T22:39:25.088Z,5.87
2022-10-09T22:42:26.500Z,5.76
2022-10-09T22:45:27.895Z,5.78
2022-10-09T22:48:29.293Z,5.77
2022-10-09T22:51:31.026Z,5.75
2022-10-09T22:54:32.443Z,5.81
2022-10-09T22:57:33.861Z,5.80
2022-10-09T23:00:38.939Z,5.73
2022-10-09T23:03:40.454Z,5.75
2022-10-09T23:06:43.575Z,5.74
2022-10-09T23:09:44.968Z,5.68
2022-10-09T23:12:49.564Z,5.60
2022-10-09T23:15:51.071Z,5.53
2022-10-09T23:18:52.706Z,5.46
2022-10-09T23:21:54.117Z,5.37
2022-10-09T23:24:55.543Z,5.26
2022-10-09T23:27:56.961Z,5.19
2022-10-09T23:31:07.442Z,5.17
2022-10-09T23:34:08.874Z,5.13
2022-10-09T23:37:10.363Z,5.10
2022-10-09T23:40:11.793Z,5.12
2022-10-09T23:43:13.239Z,5.10
2022-10-09T23:46:17.120Z,5.07
2022-10-09T23:49:18.558Z,5.15
2022-10-09T23:52:19.965Z,5.12
2022-10-09T23:55:21.347Z,5.07
2022-10-09T23:58:23.036Z,5.05
